createdAt,value
2022-11-17T00:01:48.880Z,14.10
2022-11-17T00:06:51.167Z,13.82
2022-11-17T00:12:12.037Z,13.95
2022-11-17T00:17:14.509Z,13.84
2022-11-17T00:22:16.693Z,13.91
2022-11-17T00:27:18.993Z,13.89
2022-11-17T00:32:39.531Z,13.74
2022-11-17T00:38:04.570Z,14.07
2022-11-17T00:43:06.880Z,13.74
2022-11-17T00:48:09.268Z,13.85
2022-11-17T00:53:11.477Z,13.95
2022-11-17T00:58:13.714Z,13.92
2022-11-17T01:03:15.970Z,13.99
2022-11-17T01:08:18.182Z,14.06
2022-11-17T01:13:20.430Z,13.91
2022-11-17T01:18:22.647Z,13.76
2022-11-17T01:23:24.841Z,14.19
2022-11-17T01:28:27.233Z,14.26
2022-11-17T01:33:29.996Z,14.29
2022-11-17T01:38:32.790Z,14.08
2022-11-17T01:43:40.138Z,14.27
2022-11-17T01:48:44.927Z,14.17
2022-11-17T01:53:50.855Z,13.88
2022-11-17T01:59:03.173Z,13.92
2022-11-17T02:04:05.722Z,14.22
2022-11-17T02:09:08.541Z,13.92
2022-11-17T02:14:11.092Z,14.20
2022-11-17T02:19:16.972Z,14.18
2022-11-17T02:24:47.952Z,13.90
2022-11-17T02:30:04.349Z,14.11
2022-11-17T02:35:25.329Z,13.97
2022-11-17T02:40:35.119Z,14.10
2022-11-17T02:45:46.078Z,13.75
2022-11-17T02:50:50.162Z,13.98
2022-11-17T02:55:53.937Z,14.12
2022-11-17T03:01:15.928Z,14.08
2022-11-17T03:06:36.535Z,14.06
2022-11-17T03:12:14.189Z,13.99
2022-11-17T03:17:20.085Z,13.48
2022-11-17T03:22:34.204Z,13.96
2022-11-17T03:27:39.636Z,13.87
2022-11-17T03:32:47.292Z,13.52
2022-11-17T03:37:56.631Z,13.58
2022-11-17T03:43:05.941Z,13.77
2022-11-17T03:48:34.465Z,13.72
2022-11-17T03:53:37.317Z,13.71
2022-11-17T03:58:47.074Z,13.51
2022-11-17T04:03:49.465Z,13.36
2022-11-17T04:08:51.804Z,13.32
2022-11-17T04:14:12.494Z,13.58
2022-11-17T04:19:14.705Z,13.45
2022-11-17T04:24:16.907Z,13.41
2022-11-17T04:29:19.438Z,13.24
2022-11-17T04:34:21.625Z,13.16
2022-11-17T04:39:23.881Z,13.13
2022-11-17T04:44:28.708Z,13.25
2022-11-17T04:49:33.092Z,13.26
2022-11-17T04:54:35.819Z,12.87
2022-11-17T04:59:38.040Z,12.77
2022-11-17T05:04:58.592Z,12.75
2022-11-17T05:10:01.765Z,12.92
2022-11-17T05:15:04.140Z,12.95
2022-11-17T05:20:07.440Z,12.72
2022-11-17T05:25:10.165Z,12.92
2022-11-17T05:30:12.791Z,12.86
2022-11-17T05:35:15.038Z,12.67
2022-11-17T05:40:17.449Z,13.03
2022-11-17T05:45:24.504Z,12.99
2022-11-17T05:50:27.247Z,12.57
2022-11-17T05:55:29.571Z,12.72
2022-11-17T06:00:32.976Z,12.83
2022-11-17T06:05:35.321Z,12.94
2022-11-17T06:10:37.815Z,12.78
2022-11-17T06:15:40.226Z,12.63
2022-11-17T06:20:48.866Z,12.76
2022-11-17T06:25:51.288Z,12.95
2022-11-17T06:30:54.743Z,13.15
2022-11-17T06:35:59.873Z,13.33
2022-11-17T06:41:07.524Z,13.38
2022-11-17T06:46:13.859Z,13.17
2022-11-17T06:51:16.217Z,13.45
2022-11-17T06:56:18.781Z,13.58
2022-11-17T07:01:21.466Z,13.71
2022-11-17T07:06:24.379Z,13.88
2022-11-17T07:11:27.130Z,13.82
2022-11-17T07:16:31.308Z,14.09
2022-11-17T07:21:33.773Z,13.92
2022-11-17T07:26:36.095Z,14.00
2022-11-17T07:31:38.355Z,14.58
2022-11-17T07:36:40.654Z,14.69
2022-11-17T07:41:42.979Z,14.86
2022-11-17T07:46:45.229Z,14.75
2022-11-17T07:51:47.492Z,15.10
2022-11-17T07:56:49.827Z,15.15
2022-11-17T08:01:52.391Z,15.30
2022-11-17T08:06:54.838Z,15.41
2022-11-17T08:11:58.241Z,15.39
2022-11-17T08:17:00.787Z,15.69
2022-11-17T08:22:03.159Z,15.68
2022-11-17T08:27:05.431Z,15.70
2022-11-17T08:32:07.844Z,15.82
2022-11-17T08:37:10.119Z,15.64
2022-11-17T08:42:12.433Z,16.01
2022-11-17T08:47:14.665Z,15.93
2022-11-17T08:52:17.179Z,15.79
2022-11-17T08:57:19.676Z,16.06
2022-11-17T09:02:21.982Z,16.08
2022-11-17T09:07:24.411Z,16.18
2022-11-17T09:12:26.842Z,16.14
2022-11-17T09:17:29.145Z,16.38
2022-11-17T09:22:31.394Z,16.25
2022-11-17T09:27:33.861Z,16.49
2022-11-17T09:32:36.547Z,16.50
2022-11-17T09:37:38.961Z,16.30
2022-11-17T09:42:42.577Z,16.85
2022-11-17T09:48:02.558Z,16.99
2022-11-17T09:54:15.930Z,17.03
2022-11-17T09:59:21.984Z,17.18
2022-11-17T10:04:28.663Z,17.23
2022-11-17T10:09:41.794Z,17.35
2022-11-17T10:14:44.931Z,17.36
2022-11-17T10:19:47.257Z,17.30
2022-11-17T10:24:52.559Z,17.39
2022-11-17T10:30:05.808Z,17.52
2022-11-17T10:35:17.349Z,17.53
2022-11-17T10:40:28.802Z,17.49
2022-11-17T10:45:31.291Z,17.65
2022-11-17T10:50:33.620Z,17.56
2022-11-17T10:55:36.695Z,17.66
2022-11-17T11:00:39.175Z,17.71
2022-11-17T11:05:55.290Z,17.75
2022-11-17T11:11:00.351Z,17.85
2022-11-17T11:16:02.909Z,17.96
2022-11-17T11:21:24.791Z,18.33
2022-11-17T11:26:40.541Z,18.41
2022-11-17T11:31:58.646Z,18.52
2022-11-17T11:37:15.567Z,18.61
2022-11-17T11:42:46.591Z,18.82
2022-11-17T11:48:00.873Z,19.03
2022-11-17T11:53:11.953Z,19.13
2022-11-17T11:58:23.928Z,19.29
2022-11-17T12:03:53.552Z,19.18
2022-11-17T12:09:32.063Z,19.36
2022-11-17T12:14:37.868Z,19.49
2022-11-17T12:20:00.525Z,19.59
2022-11-17T12:25:31.821Z,19.71
2022-11-17T12:30:34.162Z,19.77
2022-11-17T12:35:39.512Z,19.66
2022-11-17T12:40:44.653Z,19.88
2022-11-17T12:45:58.746Z,19.83
2022-11-17T12:51:06.525Z,19.80
2022-11-17T12:56:28.203Z,19.68
2022-11-17T13:01:33.318Z,19.63
2022-11-17T13:06:36.750Z,19.51
2022-11-17T13:11:39.515Z,19.51
2022-11-17T13:16:50.990Z,19.46
2022-11-17T13:22:00.341Z,19.25
2022-11-17T13:27:07.786Z,19.19
2022-11-17T13:32:21.655Z,19.21
2022-11-17T13:37:28.862Z,19.17
2022-11-17T13:42:32.887Z,19.00
2022-11-17T13:47:37.847Z,19.15
2022-11-17T13:52:46.486Z,19.03
2022-11-17T13:57:59.216Z,19.00
2022-11-17T14:03:06.057Z,18.98
2022-11-17T14:08:23.346Z,19.06
2022-11-17T14:13:31.394Z,19.16
2022-11-17T14:18:39.376Z,19.40
2022-11-17T14:23:43.718Z,20.33
2022-11-17T14:28:46.287Z,20.98
2022-11-17T14:33:48.590Z,21.18
2022-11-17T14:38:50.971Z,21.26
2022-11-17T14:43:53.256Z,20.41
2022-11-17T14:48:56.308Z,20.16
2022-11-17T14:53:59.330Z,19.54
2022-11-17T14:59:01.626Z,19.34
2022-11-17T15:04:27.371Z,19.30
2022-11-17T15:09:27.311Z,18.94
2022-11-17T15:14:29.578Z,18.54
2022-11-17T15:19:31.858Z,18.24
2022-11-17T15:24:34.147Z,18.22
2022-11-17T15:29:36.582Z,18.14
2022-11-17T15:34:39.044Z,18.11
2022-11-17T15:39:41.480Z,18.18
2022-11-17T15:44:43.758Z,18.07
2022-11-17T15:49:47.228Z,17.84
2022-11-17T15:54:49.474Z,17.78
2022-11-17T15:59:52.327Z,17.98
2022-11-17T16:04:54.749Z,17.71
2022-11-17T16:09:56.960Z,17.87
2022-11-17T16:14:59.272Z,17.61
2022-11-17T16:20:01.786Z,17.67
2022-11-17T16:25:05.946Z,17.68
2022-11-17T16:30:09.292Z,17.80
2022-11-17T16:35:11.950Z,17.65
2022-11-17T16:40:14.218Z,17.50
2022-11-17T16:45:16.509Z,17.37
2022-11-17T16:50:19.044Z,17.31
2022-11-17T16:55:21.380Z,17.44
2022-11-17T17:00:23.743Z,17.58
2022-11-17T17:05:26.718Z,17.42
2022-11-17T17:10:28.922Z,17.39
2022-11-17T17:15:31.302Z,17.40
2022-11-17T17:20:33.941Z,17.38
2022-11-17T17:25:36.199Z,17.36
2022-11-17T17:30:38.665Z,17.31
2022-11-17T17:35:40.904Z,17.13
2022-11-17T17:40:43.261Z,17.26
2022-11-17T17:45:45.591Z,17.16
2022-11-17T17:50:47.985Z,16.88
2022-11-17T17:55:50.235Z,16.74
2022-11-17T18:00:53.457Z,16.50
2022-11-17T18:06:00.558Z,16.51
2022-11-17T18:11:04.491Z,16.63
2022-11-17T18:16:18.299Z,16.48
2022-11-17T18:21:20.839Z,16.42
2022-11-17T18:26:34.098Z,16.47
2022-11-17T18:31:37.862Z,16.41
2022-11-17T18:36:40.095Z,16.08
2022-11-17T18:41:42.934Z,16.19
2022-11-17T18:46:45.564Z,16.16
2022-11-17T18:51:48.035Z,16.13
2022-11-17T18:56:50.916Z,16.11
2022-11-17T19:01:53.274Z,16.02
2022-11-17T19:06:55.550Z,15.87
2022-11-17T19:11:57.992Z,15.96
2022-11-17T19:17:00.353Z,15.84
2022-11-17T19:22:02.788Z,15.69
2022-11-17T19:27:05.160Z,15.63
2022-11-17T19:32:07.595Z,15.82
2022-11-17T19:37:09.826Z,15.82
2022-11-17T19:42:12.734Z,15.64
2022-11-17T19:47:15.055Z,15.61
2022-11-17T19:52:17.514Z,15.61
2022-11-17T19:57:20.527Z,15.67
2022-11-17T20:02:22.952Z,15.50
2022-11-17T20:07:25.445Z,15.63
2022-11-17T20:12:27.782Z,15.28
2022-11-17T20:17:30.102Z,15.32
2022-11-17T20:22:32.606Z,15.51
2022-11-17T20:27:35.106Z,15.35
2022-11-17T20:32:37.559Z,15.36
2022-11-17T20:37:39.924Z,15.19
2022-11-17T20:42:42.296Z,15.15
2022-11-17T20:47:44.507Z,14.92
2022-11-17T20:52:46.896Z,15.18
2022-11-17T20:57:49.162Z,14.91
2022-11-17T21:02:51.404Z,14.93
2022-11-17T21:07:53.624Z,14.86
2022-11-17T21:12:55.814Z,14.91
2022-11-17T21:18:16.438Z,14.91
2022-11-17T21:23:18.760Z,14.69
2022-11-17T21:28:21.153Z,14.83
2022-11-17T21:33:23.634Z,14.77
2022-11-17T21:38:25.834Z,14.82
2022-11-17T21:43:28.242Z,14.58
2022-11-17T21:48:30.567Z,14.42
2022-11-17T21:53:33.132Z,14.49
2022-11-17T21:58:35.516Z,14.38
2022-11-17T22:03:38.748Z,14.68
2022-11-17T22:08:43.120Z,14.56
2022-11-17T22:13:45.340Z,14.05
2022-11-17T22:18:47.667Z,14.17
2022-11-17T22:23:50.546Z,14.47
2022-11-17T22:28:54.852Z,14.45
2022-11-17T22:33:57.178Z,14.27
2022-11-17T22:38:59.460Z,14.16
2022-11-17T22:44:01.718Z,14.42
2022-11-17T22:49:04.144Z,14.22
2022-11-17T22:54:08.389Z,14.44
2022-11-17T22:59:10.641Z,14.30
2022-11-17T23:04:13.444Z,14.00
2022-11-17T23:09:16.333Z,14.19
2022-11-17T23:14:18.663Z,14.12
2022-11-17T23:19:21.224Z,13.61
2022-11-17T23:24:23.678Z,13.88
2022-11-17T23:29:25.965Z,13.90
2022-11-17T23:34:28.274Z,13.75
2022-11-17T23:39:30.629Z,13.73
2022-11-17T23:44:33.055Z,14.13
2022-11-17T23:49:35.372Z,13.94
2022-11-17T23:54:37.980Z,14.14
2022-11-17T23:59:40.432Z,13.92
